Time;durP1;ratioP1;P1;durP2;ratioP2;P2;SDS_P1;SDS_P2;PMS_P1;PMS_P2;Temp;Humidity;BMP_temperature;BMP_pressure;BME280_temperature;BME280_humidity;BME280_pressure;Samples;Min_cycle;Max_cycle;Signal;HPM_P1;HPM_P2
2022/05/13 00:00:29;;;;;;;;;;;20.50;52.00;;;;;;4968407;28;86902;-48
2022/05/13 00:02:55;;;;;;;;;;;20.50;52.00;;;;;;4971139;28;86956;-48
2022/05/13 00:05:21;;;;;;;;;;;20.50;52.10;;;;;;4969000;28;86096;-48
2022/05/13 00:07:46;;;;;;;;;;;20.50;52.10;;;;;;4968294;28;86902;-48
2022/05/13 00:10:12;;;;;;;;;;;20.50;52.10;;;;;;4967709;28;87655;-48
2022/05/13 00:12:40;;;;;;;;;;;20.50;52.10;;;;;;4967764;28;87703;-48
2022/05/13 00:15:08;;;;;;;;;;;20.50;52.20;;;;;;4967479;28;88076;-47
2022/05/13 00:17:34;;;;;;;;;;;20.40;52.10;;;;;;4967702;28;88538;-48
2022/05/13 00:20:00;;;;;;;;;;;20.40;52.10;;;;;;4968166;28;87092;-47
2022/05/13 00:22:25;;;;;;;;;;;20.40;52.10;;;;;;4968003;28;88037;-48
2022/05/13 00:24:54;;;;;;;;;;;20.30;52.00;;;;;;4970542;28;87438;-48
2022/05/13 00:27:21;;;;;;;;;;;20.40;52.10;;;;;;4967991;28;87972;-48
2022/05/13 00:29:47;;;;;;;;;;;20.30;52.10;;;;;;4968033;28;87539;-48
2022/05/13 00:32:12;;;;;;;;;;;20.30;52.00;;;;;;4967874;28;86879;-48
2022/05/13 00:34:38;;;;;;;;;;;20.30;52.00;;;;;;4968086;28;87104;-47
2022/05/13 00:37:03;;;;;;;;;;;20.30;52.10;;;;;;4966764;28;89493;-48
2022/05/13 00:39:29;;;;;;;;;;;20.30;52.10;;;;;;4967797;28;86921;-47
2022/05/13 00:41:55;;;;;;;;;;;20.30;52.10;;;;;;4967771;28;87014;-48
2022/05/13 00:44:21;;;;;;;;;;;20.20;52.00;;;;;;4966541;28;88450;-48
2022/05/13 00:46:48;;;;;;;;;;;20.20;52.00;;;;;;4970566;28;86836;-51
2022/05/13 00:49:15;;;;;;;;;;;20.20;52.00;;;;;;4967226;28;88662;-48
2022/05/13 00:51:45;;;;;;;;;;;20.20;52.10;;;;;;4967955;28;86869;-48
2022/05/13 00:54:13;;;;;;;;;;;20.20;52.10;;;;;;4968002;28;87029;-50
2022/05/13 00:56:42;;;;;;;;;;;20.20;52.10;;;;;;4967076;28;88471;-48
2022/05/13 00:59:10;;;;;;;;;;;20.10;52.00;;;;;;4967485;28;87146;-48
2022/05/13 01:01:35;;;;;;;;;;;20.10;52.00;;;;;;4967200;28;87780;-49
2022/05/13 01:04:10;;;;;;;;;;;20.10;52.00;;;;;;4967353;28;87617;-47
2022/05/13 01:06:36;;;;;;;;;;;20.10;52.00;;;;;;4967530;28;86857;-48
2022/05/13 01:09:02;;;;;;;;;;;20.10;52.00;;;;;;4969713;28;86951;-48
2022/05/13 01:11:29;;;;;;;;;;;20.00;51.90;;;;;;4967313;28;87178;-48
2022/05/13 01:13:58;;;;;;;;;;;20.00;51.90;;;;;;4967464;28;86868;-48
2022/05/13 01:16:24;;;;;;;;;;;20.00;51.90;;;;;;4966855;28;88493;-48
2022/05/13 01:18:50;;;;;;;;;;;20.00;51.90;;;;;;4968010;28;86157;-48
2022/05/13 01:21:19;;;;;;;;;;;19.90;51.90;;;;;;4967211;28;86838;-48
2022/05/13 01:23:45;;;;;;;;;;;19.90;52.00;;;;;;4966710;28;89190;-48
2022/05/13 01:26:13;;;;;;;;;;;19.90;52.70;;;;;;4966495;28;88162;-48
2022/05/13 01:28:41;;;;;;;;;;;19.90;52.00;;;;;;4966346;28;87987;-47
2022/05/13 01:31:09;;;;;;;;;;;19.90;52.10;;;;;;4969638;28;88545;-48
2022/05/13 01:33:35;;;;;;;;;;;19.80;52.00;;;;;;4967282;28;86978;-48
2022/05/13 01:36:03;;;;;;;;;;;19.80;52.10;;;;;;4966848;28;87476;-48
2022/05/13 01:38:30;;;;;;;;;;;19.80;52.10;;;;;;4966934;28;86854;-49
2022/05/13 01:40:56;;;;;;;;;;;19.80;52.10;;;;;;4966859;28;88122;-51
2022/05/13 01:43:22;;;;;;;;;;;19.70;52.10;;;;;;4967308;28;86150;-49
2022/05/13 01:45:48;;;;;;;;;;;19.70;52.00;;;;;;4967197;28;86761;-50
2022/05/13 01:48:14;;;;;;;;;;;19.70;52.00;;;;;;4966847;28;87214;-48
2022/05/13 01:50:39;;;;;;;;;;;19.70;52.00;;;;;;4965767;28;89580;-48
2022/05/13 01:53:06;;;;;;;;;;;19.70;52.00;;;;;;4969780;28;86872;-50
2022/05/13 01:55:32;;;;;;;;;;;19.60;52.00;;;;;;4966206;28;88718;-48
2022/05/13 01:57:57;;;;;;;;;;;19.70;52.00;;;;;;4966770;28;86848;-47
2022/05/13 02:00:23;;;;;;;;;;;19.60;52.00;;;;;;4966690;28;87810;-48
2022/05/13 02:05:33;;;;;;;;;;;19.60;52.00;;;;;;4966883;28;87247;-48
2022/05/13 02:07:59;;;;;;;;;;;19.50;51.90;;;;;;4967091;28;87137;-48
2022/05/13 02:10:25;;;;;;;;;;;19.50;52.00;;;;;;4965993;28;88692;-48
2022/05/13 02:12:51;;;;;;;;;;;19.50;52.00;;;;;;4969316;28;86872;-49
2022/05/13 02:15:16;;;;;;;;;;;19.50;52.00;;;;;;4965757;28;88451;-50
2022/05/13 02:17:42;;;;;;;;;;;19.50;52.00;;;;;;4966418;28;86907;-48
2022/05/13 02:20:10;;;;;;;;;;;19.50;52.10;;;;;;4966527;28;87072;-48
2022/05/13 02:22:36;;;;;;;;;;;19.50;52.10;;;;;;4966053;28;88396;-48
2022/05/13 02:25:02;;;;;;;;;;;19.40;51.90;;;;;;4966701;28;86891;-48
2022/05/13 02:27:27;;;;;;;;;;;19.40;51.90;;;;;;4966299;28;87871;-47
2022/05/13 02:29:53;;;;;;;;;;;19.40;51.90;;;;;;4965987;28;88637;-48
2022/05/13 02:32:19;;;;;;;;;;;19.30;51.90;;;;;;4966828;28;86159;-48
2022/05/13 02:34:45;;;;;;;;;;;19.30;52.00;;;;;;4968919;28;87019;-47
2022/05/13 02:37:11;;;;;;;;;;;19.30;51.90;;;;;;4966292;28;86845;-47
2022/05/13 02:39:37;;;;;;;;;;;19.30;52.60;;;;;;4965616;28;87840;-48
2022/05/13 02:42:03;;;;;;;;;;;19.30;52.00;;;;;;4966120;28;86861;-47
2022/05/13 02:44:29;;;;;;;;;;;19.30;52.00;;;;;;4966081;28;86853;-48
2022/05/13 02:46:54;;;;;;;;;;;19.20;51.90;;;;;;4966144;28;87903;-47
2022/05/13 02:49:21;;;;;;;;;;;19.20;51.90;;;;;;4965662;28;88624;-48
2022/05/13 02:51:48;;;;;;;;;;;19.20;52.00;;;;;;4966143;28;86862;-49
2022/05/13 02:54:13;;;;;;;;;;;19.20;51.90;;;;;;4966183;28;86797;-48
2022/05/13 02:56:39;;;;;;;;;;;19.20;52.10;;;;;;4969342;28;86231;-48
2022/05/13 02:59:05;;;;;;;;;;;19.10;52.00;;;;;;4965986;28;86876;-48
2022/05/13 03:01:32;;;;;;;;;;;19.10;52.00;;;;;;4965823;28;86816;-47
2022/05/13 03:03:58;;;;;;;;;;;19.10;51.90;;;;;;4965375;28;87721;-48
2022/05/13 03:06:25;;;;;;;;;;;19.10;51.90;;;;;;4966913;28;88656;-47
2022/05/13 03:08:51;;;;;;;;;;;19.00;52.00;;;;;;4968482;28;88477;-47
2022/05/13 03:11:17;;;;;;;;;;;19.00;51.90;;;;;;4969390;28;87122;-48
2022/05/13 03:13:42;;;;;;;;;;;19.00;51.90;;;;;;4969180;28;86995;-47
2022/05/13 03:16:11;;;;;;;;;;;19.00;52.00;;;;;;4968771;28;88577;-48
2022/05/13 03:18:39;;;;;;;;;;;19.00;51.90;;;;;;4971415;28;87066;-48
2022/05/13 03:21:04;;;;;;;;;;;19.00;52.00;;;;;;4969191;28;86957;-48
2022/05/13 03:23:30;;;;;;;;;;;18.90;52.00;;;;;;4968973;28;87027;-48
2022/05/13 03:25:56;;;;;;;;;;;18.90;52.00;;;;;;4969232;28;86961;-48
2022/05/13 03:28:22;;;;;;;;;;;18.90;51.90;;;;;;4967853;28;89455;-47
2022/05/13 03:30:50;;;;;;;;;;;18.90;51.90;;;;;;4968885;28;86782;-47
2022/05/13 03:33:16;;;;;;;;;;;18.90;51.80;;;;;;4968761;28;88108;-48
2022/05/13 03:35:42;;;;;;;;;;;18.90;52.00;;;;;;4968445;28;87682;-47
2022/05/13 03:38:08;;;;;;;;;;;18.80;51.90;;;;;;4968770;28;86861;-47
2022/05/13 03:40:36;;;;;;;;;;;18.80;51.90;;;;;;4971310;28;87027;-47
2022/05/13 03:43:02;;;;;;;;;;;18.80;51.90;;;;;;4968623;28;87137;-47
2022/05/13 03:45:32;;;;;;;;;;;18.80;51.90;;;;;;4969291;28;88235;-49
2022/05/13 03:47:59;;;;;;;;;;;18.80;52.00;;;;;;4968131;28;88550;-47
2022/05/13 03:50:24;;;;;;;;;;;18.70;52.00;;;;;;4968548;28;87163;-47
2022/05/13 03:52:50;;;;;;;;;;;18.70;52.00;;;;;;4967797;28;88082;-47
2022/05/13 03:55:16;;;;;;;;;;;18.70;51.80;;;;;;4968441;28;87477;-47
2022/05/13 03:57:41;;;;;;;;;;;18.70;52.00;;;;;;4968443;28;86901;-48
2022/05/13 04:00:09;;;;;;;;;;;18.70;52.00;;;;;;4971178;28;87113;-47
2022/05/13 04:02:35;;;;;;;;;;;18.70;52.00;;;;;;4968630;28;86833;-49
2022/05/13 04:10:29;;;;;;;;;;;18.60;52.00;;;;;;4968779;28;86031;-47
2022/05/13 04:18:23;;;;;;;;;;;18.60;52.10;;;;;;4963534;28;87789;-47
2022/05/13 04:20:49;;;;;;;;;;;18.50;52.10;;;;;;4968029;28;89000;-47
2022/05/13 04:23:16;;;;;;;;;;;18.50;52.20;;;;;;4970476;28;88499;-47
2022/05/13 04:25:41;;;;;;;;;;;18.50;52.00;;;;;;4968090;28;87901;-47
2022/05/13 04:28:07;;;;;;;;;;;18.50;52.10;;;;;;4967906;28;87684;-47
2022/05/13 04:30:33;;;;;;;;;;;18.50;52.10;;;;;;4967993;28;86824;-47
2022/05/13 04:32:58;;;;;;;;;;;18.50;52.10;;;;;;4968122;28;87063;-48
2022/05/13 04:35:24;;;;;;;;;;;18.50;52.10;;;;;;4968297;28;86740;-47
2022/05/13 04:37:49;;;;;;;;;;;18.50;52.10;;;;;;4968194;28;86878;-47
2022/05/13 04:40:15;;;;;;;;;;;18.40;52.10;;;;;;4967778;28;88097;-47
2022/05/13 04:42:49;;;;;;;;;;;18.40;52.20;;;;;;4966758;28;88571;-47
2022/05/13 04:45:16;;;;;;;;;;;18.40;52.10;;;;;;4970633;28;86946;-47
2022/05/13 04:50:26;;;;;;;;;;;18.40;52.10;;;;;;4964421;28;86879;-49
2022/05/13 04:52:51;;;;;;;;;;;18.30;52.10;;;;;;4967246;28;86958;-48
2022/05/13 04:55:17;;;;;;;;;;;18.30;52.20;;;;;;4967011;28;87615;-47
2022/05/13 04:57:43;;;;;;;;;;;18.30;52.20;;;;;;4967158;28;86931;-47
2022/05/13 05:00:08;;;;;;;;;;;18.40;52.20;;;;;;4967540;28;86789;-48
2022/05/13 05:02:34;;;;;;;;;;;18.40;52.20;;;;;;4966691;28;89162;-48
2022/05/13 05:05:00;;;;;;;;;;;18.30;52.20;;;;;;4967278;28;86915;-47
2022/05/13 05:07:25;;;;;;;;;;;18.40;52.20;;;;;;4969011;28;87702;-47
2022/05/13 05:09:51;;;;;;;;;;;18.40;52.20;;;;;;4966907;28;86899;-47
2022/05/13 05:12:16;;;;;;;;;;;18.40;52.20;;;;;;4966785;28;87821;-49
2022/05/13 05:14:42;;;;;;;;;;;18.40;52.30;;;;;;4966435;28;87907;-47
2022/05/13 05:17:08;;;;;;;;;;;18.30;52.30;;;;;;4966735;28;86871;-48
2022/05/13 05:19:33;;;;;;;;;;;18.40;52.30;;;;;;4966987;28;86994;-47
2022/05/13 05:21:59;;;;;;;;;;;18.40;52.20;;;;;;4966277;28;88408;-47
2022/05/13 05:24:24;;;;;;;;;;;18.40;52.30;;;;;;4967329;28;86375;-48
2022/05/13 05:26:50;;;;;;;;;;;18.40;52.30;;;;;;4967049;28;86834;-47
2022/05/13 05:29:16;;;;;;;;;;;18.40;52.30;;;;;;4969092;28;88656;-48
2022/05/13 05:31:42;;;;;;;;;;;18.30;52.30;;;;;;4966343;28;88195;-48
2022/05/13 05:34:08;;;;;;;;;;;18.40;52.40;;;;;;4966084;28;88557;-47
2022/05/13 05:36:34;;;;;;;;;;;18.40;52.30;;;;;;4966318;28;86909;-48
2022/05/13 05:39:00;;;;;;;;;;;18.40;52.30;;;;;;4966338;28;88440;-47
2022/05/13 05:41:26;;;;;;;;;;;18.40;52.30;;;;;;4966053;28;88582;-49
2022/05/13 05:43:52;;;;;;;;;;;18.40;52.40;;;;;;4966541;28;86885;-47
2022/05/13 05:46:17;;;;;;;;;;;18.40;52.40;;;;;;4966438;28;88124;-47
2022/05/13 05:48:43;;;;;;;;;;;18.30;52.50;;;;;;4966514;28;88057;-47
2022/05/13 05:51:09;;;;;;;;;;;18.40;52.60;;;;;;4969219;28;86965;-47
2022/05/13 05:59:04;;;;;;;;;;;18.40;52.60;;;;;;4963574;28;87485;-47
2022/05/13 06:01:29;;;;;;;;;;;18.40;52.70;;;;;;4965883;28;87652;-48
2022/05/13 06:03:55;;;;;;;;;;;18.40;52.80;;;;;;4966093;28;86854;-47
2022/05/13 06:06:20;;;;;;;;;;;18.40;52.80;;;;;;4966055;28;87726;-48
2022/05/13 06:08:46;;;;;;;;;;;18.40;52.80;;;;;;4965197;28;88410;-47
2022/05/13 06:11:11;;;;;;;;;;;18.40;52.80;;;;;;4968765;28;86905;-48
2022/05/13 06:13:38;;;;;;;;;;;18.40;52.80;;;;;;4966364;28;86446;-48
2022/05/13 06:16:04;;;;;;;;;;;18.40;52.90;;;;;;4965900;28;86896;-47
2022/05/13 06:18:30;;;;;;;;;;;18.40;52.80;;;;;;4965968;28;88096;-47
2022/05/13 06:20:55;;;;;;;;;;;18.40;52.80;;;;;;4964950;28;89570;-47
2022/05/13 06:23:21;;;;;;;;;;;18.40;52.90;;;;;;4965801;28;86908;-47
2022/05/13 06:25:47;;;;;;;;;;;18.40;52.90;;;;;;4965800;28;86924;-47
2022/05/13 06:28:13;;;;;;;;;;;18.40;52.80;;;;;;4965834;28;86780;-47
2022/05/13 06:30:38;;;;;;;;;;;18.40;52.90;;;;;;4965841;28;87345;-47
2022/05/13 06:33:04;;;;;;;;;;;18.40;52.90;;;;;;4968321;28;87789;-47
2022/05/13 06:35:31;;;;;;;;;;;18.40;52.90;;;;;;4965980;28;86983;-48
2022/05/13 06:37:57;;;;;;;;;;;18.40;53.00;;;;;;4966563;28;86227;-48
2022/05/13 06:40:23;;;;;;;;;;;18.40;52.90;;;;;;4965350;28;88571;-47
2022/05/13 06:42:49;;;;;;;;;;;18.50;53.00;;;;;;4968637;28;86872;-47
2022/05/13 06:45:15;;;;;;;;;;;18.40;53.10;;;;;;4968842;28;88329;-47
2022/05/13 06:47:40;;;;;;;;;;;18.40;53.10;;;;;;4968837;28;88412;-47
2022/05/13 06:50:07;;;;;;;;;;;18.40;53.00;;;;;;4969048;28;86886;-47
2022/05/13 06:52:32;;;;;;;;;;;18.40;53.10;;;;;;4969052;28;88046;-48
2022/05/13 06:54:58;;;;;;;;;;;18.40;53.10;;;;;;4971279;28;87697;-46
2022/05/13 06:57:24;;;;;;;;;;;18.40;53.00;;;;;;4968875;28;88042;-48
2022/05/13 06:59:49;;;;;;;;;;;18.40;53.10;;;;;;4967984;28;86964;-47
2022/05/13 07:02:18;;;;;;;;;;;18.50;53.20;;;;;;4969554;28;86133;-48
2022/05/13 07:04:47;;;;;;;;;;;18.50;53.30;;;;;;4968857;28;87144;-47
2022/05/13 07:07:13;;;;;;;;;;;18.40;53.20;;;;;;4968350;28;88762;-47
2022/05/13 07:09:38;;;;;;;;;;;18.50;53.30;;;;;;4967287;28;88215;-47
2022/05/13 07:12:05;;;;;;;;;;;18.40;53.20;;;;;;4968741;28;88945;-47
2022/05/13 07:14:30;;;;;;;;;;;18.50;53.40;;;;;;4968104;28;88715;-46
2022/05/13 07:16:56;;;;;;;;;;;18.40;53.40;;;;;;4971678;28;86789;-48
2022/05/13 07:19:22;;;;;;;;;;;18.40;53.40;;;;;;4968400;28;87504;-47
2022/05/13 07:21:48;;;;;;;;;;;18.50;53.40;;;;;;4967812;28;87108;-47
2022/05/13 07:24:13;;;;;;;;;;;18.50;53.40;;;;;;4968538;28;87853;-47
2022/05/13 07:26:39;;;;;;;;;;;18.50;53.40;;;;;;4968742;28;87828;-48
2022/05/13 07:29:05;;;;;;;;;;;18.50;53.50;;;;;;4968504;28;86855;-48
2022/05/13 07:31:31;;;;;;;;;;;18.50;53.50;;;;;;4967805;28;86908;-47
2022/05/13 07:33:56;;;;;;;;;;;18.50;53.50;;;;;;4967538;28;88672;-47
2022/05/13 07:36:22;;;;;;;;;;;18.50;53.50;;;;;;4968419;28;87007;-47
2022/05/13 07:41:32;;;;;;;;;;;18.50;53.40;;;;;;4965345;28;86683;-48
2022/05/13 07:43:58;;;;;;;;;;;18.50;53.40;;;;;;4968412;28;86867;-47
2022/05/13 07:46:25;;;;;;;;;;;18.50;53.50;;;;;;4967860;28;88186;-48
2022/05/13 07:48:51;;;;;;;;;;;18.60;53.50;;;;;;4967982;28;86908;-47
2022/05/13 07:51:17;;;;;;;;;;;18.60;53.70;;;;;;4967854;28;86896;-47
2022/05/13 07:53:43;;;;;;;;;;;18.60;53.60;;;;;;4967328;28;88696;-49
2022/05/13 07:56:08;;;;;;;;;;;18.50;53.50;;;;;;4968146;28;86906;-47
2022/05/13 07:58:34;;;;;;;;;;;18.50;53.60;;;;;;4967332;28;88074;-48
2022/05/13 08:01:00;;;;;;;;;;;18.60;53.60;;;;;;4970407;28;88645;-48
2022/05/13 08:03:26;;;;;;;;;;;18.60;53.60;;;;;;4967772;28;87835;-47
2022/05/13 08:05:53;;;;;;;;;;;18.60;53.60;;;;;;4967434;28;87878;-47
2022/05/13 08:08:19;;;;;;;;;;;18.60;53.80;;;;;;4967637;28;86869;-47
2022/05/13 08:10:47;;;;;;;;;;;18.60;53.60;;;;;;4968080;28;86835;-48
2022/05/13 08:13:13;;;;;;;;;;;18.60;53.60;;;;;;4967365;28;88395;-47
2022/05/13 08:15:39;;;;;;;;;;;18.60;53.60;;;;;;4968162;28;86142;-47
2022/05/13 08:18:05;;;;;;;;;;;18.70;53.70;;;;;;4967941;28;87379;-48
2022/05/13 08:20:31;;;;;;;;;;;18.70;53.70;;;;;;4970083;28;88866;-48
2022/05/13 08:22:57;;;;;;;;;;;18.70;53.70;;;;;;4967055;28;88502;-47
2022/05/13 08:25:23;;;;;;;;;;;18.70;53.60;;;;;;4967564;28;86847;-47
2022/05/13 08:27:48;;;;;;;;;;;18.70;53.60;;;;;;4967557;28;86875;-47
2022/05/13 08:30:15;;;;;;;;;;;18.60;53.60;;;;;;4967892;28;86859;-47
2022/05/13 08:32:40;;;;;;;;;;;18.70;53.60;;;;;;4967038;28;88518;-47
2022/05/13 08:35:06;;;;;;;;;;;18.70;53.60;;;;;;4967619;28;86963;-47
2022/05/13 08:37:32;;;;;;;;;;;18.70;53.70;;;;;;4967316;28;87847;-47
2022/05/13 08:39:59;;;;;;;;;;;18.70;53.70;;;;;;4967561;28;86974;-49
2022/05/13 08:42:36;;;;;;;;;;;18.70;53.60;;;;;;4970393;28;86931;-49
2022/05/13 08:45:03;;;;;;;;;;;18.70;53.60;;;;;;4966992;28;87629;-47
2022/05/13 08:47:34;;;;;;;;;;;18.80;53.70;;;;;;4966406;28;87923;-47
2022/05/13 08:50:12;;;;;;;;;;;18.70;53.60;;;;;;4967595;28;86848;-48
2022/05/13 08:53:11;;;;;;;;;;;18.80;53.70;;;;;;4966733;28;87878;-47
2022/05/13 08:55:37;;;;;;;;;;;18.70;53.90;;;;;;4966942;28;86881;-47
2022/05/13 08:58:08;;;;;;;;;;;18.70;53.70;;;;;;4967499;28;86814;-47
2022/05/13 09:00:39;;;;;;;;;;;18.80;53.70;;;;;;4966682;28;88534;-47
2022/05/13 09:03:13;;;;;;;;;;;18.80;53.80;;;;;;4966918;28;86716;-47
2022/05/13 09:06:11;;;;;;;;;;;18.80;54.10;;;;;;4969424;28;87802;-47
2022/05/13 09:08:36;;;;;;;;;;;18.80;54.10;;;;;;4923103;28;86989;-47
2022/05/13 09:11:16;;;;;;;;;;;18.90;53.80;;;;;;4966887;28;86819;-47
2022/05/13 09:14:03;;;;;;;;;;;18.90;53.70;;;;;;4965725;28;89641;-48
2022/05/13 09:16:34;;;;;;;;;;;18.90;53.70;;;;;;4966888;28;86909;-48
2022/05/13 09:19:03;;;;;;;;;;;18.90;53.70;;;;;;4966798;28;87227;-47
2022/05/13 09:21:29;;;;;;;;;;;18.90;53.70;;;;;;4966288;28;88481;-48
2022/05/13 09:23:55;;;;;;;;;;;19.00;53.80;;;;;;4967257;28;86876;-49
2022/05/13 09:26:22;;;;;;;;;;;18.90;53.70;;;;;;4966810;28;88083;-47
2022/05/13 09:28:59;;;;;;;;;;;19.00;53.70;;;;;;4969199;28;87675;-47
2022/05/13 09:31:28;;;;;;;;;;;19.00;53.70;;;;;;4967032;28;87993;-47
2022/05/13 09:33:54;;;;;;;;;;;19.00;53.70;;;;;;4966151;28;88582;-49
2022/05/13 09:36:21;;;;;;;;;;;19.00;53.70;;;;;;4966508;28;86974;-47
2022/05/13 09:38:48;;;;;;;;;;;19.00;53.70;;;;;;4965906;28;87781;-47
2022/05/13 09:41:23;;;;;;;;;;;19.10;53.80;;;;;;4966121;28;88848;-48
2022/05/13 09:43:53;;;;;;;;;;;19.10;54.10;;;;;;4966614;28;86885;-47
2022/05/13 09:46:23;;;;;;;;;;;19.10;54.40;;;;;;4966788;28;86873;-47
2022/05/13 09:48:59;;;;;;;;;;;19.10;54.30;;;;;;4966076;28;86842;-48
2022/05/13 09:51:31;;;;;;;;;;;19.10;54.40;;;;;;4969295;28;86780;-48
2022/05/13 09:54:05;;;;;;;;;;;19.20;54.40;;;;;;4965807;28;87687;-47
2022/05/13 09:56:34;;;;;;;;;;;19.10;53.90;;;;;;4966775;28;86065;-48
2022/05/13 09:59:03;;;;;;;;;;;19.20;53.90;;;;;;4966305;28;87266;-47
2022/05/13 10:01:29;;;;;;;;;;;19.20;54.30;;;;;;4965671;28;87651;-47
2022/05/13 10:04:10;;;;;;;;;;;19.20;54.50;;;;;;4965510;28;87848;-48
2022/05/13 10:06:37;;;;;;;;;;;19.20;54.50;;;;;;4966052;28;88892;-47
2022/05/13 10:14:41;;;;;;;;;;;19.30;54.00;;;;;;4968851;28;86864;-47
2022/05/13 10:17:11;;;;;;;;;;;19.30;53.90;;;;;;4968104;28;87109;-47
2022/05/13 10:19:40;;;;;;;;;;;19.40;53.90;;;;;;4969505;28;87888;-48
2022/05/13 10:22:06;;;;;;;;;;;19.40;54.00;;;;;;4969543;28;87058;-47
2022/05/13 10:24:55;;;;;;;;;;;19.40;54.20;;;;;;4969483;28;86870;-48
2022/05/13 10:27:23;;;;;;;;;;;19.40;54.30;;;;;;4931981;28;87088;-48
2022/05/13 10:29:50;;;;;;;;;;;19.40;54.20;;;;;;4968207;28;88649;-47
2022/05/13 10:32:19;;;;;;;;;;;19.40;54.20;;;;;;4969120;28;86786;-49
2022/05/13 10:34:48;;;;;;;;;;;19.40;54.10;;;;;;4971666;28;87374;-47
2022/05/13 10:37:21;;;;;;;;;;;19.50;54.70;;;;;;4969189;28;86944;-47
2022/05/13 10:39:50;;;;;;;;;;;19.50;54.10;;;;;;4969422;28;86891;-47
2022/05/13 10:42:20;;;;;;;;;;;19.50;54.50;;;;;;4968753;28;87795;-48
2022/05/13 10:45:01;;;;;;;;;;;19.50;54.40;;;;;;4969030;28;86864;-47
2022/05/13 10:47:37;;;;;;;;;;;19.60;54.20;;;;;;4969738;28;87161;-48
2022/05/13 10:50:22;;;;;;;;;;;19.60;54.30;;;;;;4968644;28;88613;-48
2022/05/13 10:52:53;;;;;;;;;;;19.60;54.10;;;;;;4968831;28;86900;-48
2022/05/13 10:55:22;;;;;;;;;;;19.70;54.00;;;;;;4968303;28;87910;-48
2022/05/13 10:57:51;;;;;;;;;;;19.70;54.00;;;;;;4971367;28;87800;-47
2022/05/13 11:00:18;;;;;;;;;;;19.70;53.90;;;;;;4969064;28;86919;-48
2022/05/13 11:02:55;;;;;;;;;;;19.70;54.00;;;;;;4968582;28;88630;-49
2022/05/13 11:05:20;;;;;;;;;;;19.70;54.20;;;;;;4968917;28;86893;-47
2022/05/13 11:07:49;;;;;;;;;;;19.70;53.90;;;;;;4968909;28;88076;-48
2022/05/13 11:10:38;;;;;;;;;;;19.80;53.90;;;;;;4968569;28;87088;-47
2022/05/13 11:13:10;;;;;;;;;;;19.80;54.00;;;;;;4958680;28;86334;-48
2022/05/13 11:15:36;;;;;;;;;;;19.80;53.80;;;;;;4968510;28;89685;-48
2022/05/13 11:18:16;;;;;;;;;;;19.90;53.80;;;;;;4968510;28;86790;-47
2022/05/13 11:20:45;;;;;;;;;;;19.90;53.70;;;;;;4970879;28;87839;-47
2022/05/13 11:23:11;;;;;;;;;;;19.90;53.70;;;;;;4968187;28;88583;-47
2022/05/13 11:25:56;;;;;;;;;;;19.90;53.70;;;;;;4968555;28;86855;-48
2022/05/13 11:28:21;;;;;;;;;;;19.90;53.70;;;;;;4968041;28;88046;-48
2022/05/13 11:31:05;;;;;;;;;;;19.90;53.70;;;;;;4968367;28;87615;-47
2022/05/13 11:33:49;;;;;;;;;;;20.00;53.90;;;;;;4968390;28;86918;-47
2022/05/13 11:36:21;;;;;;;;;;;20.00;53.70;;;;;;4968341;28;87059;-48
2022/05/13 11:39:00;;;;;;;;;;;20.10;53.80;;;;;;4968756;28;86696;-47
2022/05/13 11:41:30;;;;;;;;;;;20.10;53.70;;;;;;4968327;28;86878;-48
2022/05/13 11:43:59;;;;;;;;;;;20.10;53.70;;;;;;4970738;28;88422;-48
2022/05/13 11:46:39;;;;;;;;;;;20.10;53.70;;;;;;4967508;28;87798;-48
2022/05/13 11:49:09;;;;;;;;;;;20.20;53.60;;;;;;4968390;28;88991;-48
2022/05/13 11:51:35;;;;;;;;;;;20.10;53.50;;;;;;4967902;28;88209;-48
2022/05/13 11:54:01;;;;;;;;;;;20.20;53.60;;;;;;4968100;28;86831;-49
2022/05/13 11:56:29;;;;;;;;;;;20.20;53.50;;;;;;4967764;28;86836;-48
2022/05/13 11:58:56;;;;;;;;;;;20.20;53.50;;;;;;4967542;28;88570;-48
2022/05/13 12:01:34;;;;;;;;;;;20.30;53.50;;;;;;4968226;28;86866;-49
2022/05/13 12:04:12;;;;;;;;;;;20.30;53.40;;;;;;4968378;28;88094;-48
2022/05/13 12:06:49;;;;;;;;;;;20.30;53.50;;;;;;4970351;28;88462;-48
2022/05/13 12:09:23;;;;;;;;;;;20.30;53.70;;;;;;4967784;28;87089;-48
2022/05/13 12:12:08;;;;;;;;;;;20.40;53.50;;;;;;4966958;28;87837;-49
2022/05/13 12:14:44;;;;;;;;;;;20.40;53.60;;;;;;4966962;28;87090;-49
2022/05/13 12:17:20;;;;;;;;;;;20.40;53.40;;;;;;4967633;28;88307;-48
2022/05/13 12:19:46;;;;;;;;;;;20.50;53.40;;;;;;4967349;28;87657;-48
2022/05/13 12:22:22;;;;;;;;;;;20.50;53.30;;;;;;4968006;28;87175;-47
2022/05/13 12:25:02;;;;;;;;;;;20.50;53.30;;;;;;4967857;28;86878;-48
2022/05/13 12:27:32;;;;;;;;;;;20.50;53.30;;;;;;4967186;28;87868;-48
2022/05/13 12:29:59;;;;;;;;;;;20.50;53.30;;;;;;4970817;28;86245;-49
2022/05/13 12:32:36;;;;;;;;;;;20.60;53.20;;;;;;4967323;28;88510;-48
2022/05/13 12:37:45;;;;;;;;;;;20.70;53.20;;;;;;4963973;28;87892;-48
2022/05/13 12:40:11;;;;;;;;;;;20.70;53.10;;;;;;4965949;28;88544;-48
2022/05/13 12:42:39;;;;;;;;;;;20.70;53.00;;;;;;4967462;28;86952;-48
2022/05/13 12:45:08;;;;;;;;;;;20.70;53.10;;;;;;4967384;28;87146;-48
2022/05/13 12:47:52;;;;;;;;;;;20.70;52.90;;;;;;4966905;28;88463;-48
2022/05/13 12:50:20;;;;;;;;;;;20.80;53.00;;;;;;4970425;28;86860;-49
2022/05/13 12:52:45;;;;;;;;;;;20.80;52.90;;;;;;4966725;28;87650;-48
2022/05/13 12:55:20;;;;;;;;;;;20.80;52.90;;;;;;4967462;28;86154;-48
2022/05/13 12:57:48;;;;;;;;;;;20.80;52.90;;;;;;4967411;28;87345;-48
2022/05/13 13:00:19;;;;;;;;;;;20.90;53.00;;;;;;4966691;28;88619;-48
2022/05/13 13:02:47;;;;;;;;;;;20.90;52.80;;;;;;4966324;28;87862;-48
2022/05/13 13:05:17;;;;;;;;;;;21.00;52.80;;;;;;4966814;28;90470;-49
2022/05/13 13:07:43;;;;;;;;;;;21.00;52.80;;;;;;4966523;28;87625;-48
2022/05/13 13:10:10;;;;;;;;;;;21.00;52.70;;;;;;4966420;28;86885;-48
2022/05/13 13:13:02;;;;;;;;;;;21.00;52.70;;;;;;4969403;28;88205;-48
2022/05/13 13:15:33;;;;;;;;;;;21.10;52.50;;;;;;4962335;28;86878;-48
2022/05/13 13:18:00;;;;;;;;;;;21.10;52.80;;;;;;4966839;28;87787;-48
2022/05/13 13:20:27;;;;;;;;;;;21.10;52.40;;;;;;4967130;28;86202;-48
2022/05/13 13:22:54;;;;;;;;;;;21.10;52.50;;;;;;4966671;28;86876;-48
2022/05/13 13:25:20;;;;;;;;;;;21.10;52.40;;;;;;4966966;28;87237;-48
2022/05/13 13:27:45;;;;;;;;;;;21.20;52.40;;;;;;4965721;28;88800;-49
2022/05/13 13:30:16;;;;;;;;;;;21.20;52.00;;;;;;4966920;28;86875;-48
2022/05/13 13:32:45;;;;;;;;;;;21.20;52.30;;;;;;4966602;28;87748;-48
2022/05/13 13:35:10;;;;;;;;;;;21.30;52.30;;;;;;4969290;28;86882;-48
2022/05/13 13:37:38;;;;;;;;;;;21.30;52.30;;;;;;4966857;28;86916;-48
2022/05/13 13:40:15;;;;;;;;;;;21.30;52.30;;;;;;4965971;28;88894;-48
2022/05/13 13:42:41;;;;;;;;;;;21.30;52.20;;;;;;4966373;28;86857;-48
2022/05/13 13:45:09;;;;;;;;;;;21.40;52.20;;;;;;4966972;28;87789;-48
2022/05/13 13:47:45;;;;;;;;;;;21.40;52.10;;;;;;4965920;28;88536;-48
2022/05/13 13:50:18;;;;;;;;;;;21.40;52.10;;;;;;4966405;28;86906;-48
2022/05/13 13:52:44;;;;;;;;;;;21.50;52.20;;;;;;4966054;28;87754;-48
2022/05/13 13:55:13;;;;;;;;;;;21.50;52.00;;;;;;4965871;28;87570;-48
2022/05/13 13:57:45;;;;;;;;;;;21.50;52.00;;;;;;4969018;28;86858;-49
2022/05/13 14:00:19;;;;;;;;;;;21.60;52.00;;;;;;4965822;28;88557;-48
2022/05/13 14:02:50;;;;;;;;;;;21.60;51.70;;;;;;4966539;28;86961;-49
2022/05/13 14:05:17;;;;;;;;;;;21.60;51.70;;;;;;4966228;28;88028;-48
2022/05/13 14:07:45;;;;;;;;;;;21.60;51.20;;;;;;4965989;28;86871;-48
2022/05/13 14:10:12;;;;;;;;;;;21.70;51.70;;;;;;4966357;28;86401;-48
2022/05/13 14:12:38;;;;;;;;;;;21.70;51.50;;;;;;4966191;28;87259;-48
2022/05/13 14:15:07;;;;;;;;;;;21.70;51.40;;;;;;4965546;28;88749;-48
2022/05/13 14:17:33;;;;;;;;;;;21.80;51.70;;;;;;4965314;28;87819;-49
2022/05/13 14:20:07;;;;;;;;;;;21.80;51.40;;;;;;4968717;28;87950;-49
2022/05/13 14:22:53;;;;;;;;;;;21.80;51.40;;;;;;4965788;28;86951;-48
2022/05/13 14:25:18;;;;;;;;;;;21.90;51.70;;;;;;4965630;28;88657;-49
2022/05/13 14:27:44;;;;;;;;;;;21.90;51.20;;;;;;4965544;28;88552;-48
2022/05/13 14:30:12;;;;;;;;;;;21.90;51.10;;;;;;4965846;28;86785;-49
2022/05/13 14:32:40;;;;;;;;;;;21.90;51.20;;;;;;4965807;28;86871;-49
2022/05/13 14:35:07;;;;;;;;;;;21.90;51.00;;;;;;4965858;28;87809;-49
2022/05/13 14:37:37;;;;;;;;;;;21.90;51.10;;;;;;4965878;28;87104;-50
2022/05/13 14:40:09;;;;;;;;;;;21.90;50.70;;;;;;4968568;28;86913;-48
2022/05/13 14:42:55;;;;;;;;;;;21.90;50.80;;;;;;4965062;28;87913;-48
2022/05/13 14:45:30;;;;;;;;;;;21.90;50.60;;;;;;4965034;28;89567;-48
2022/05/13 14:48:13;;;;;;;;;;;21.90;50.60;;;;;;4965320;28;87702;-48
2022/05/13 14:50:40;;;;;;;;;;;21.90;51.00;;;;;;4965708;28;86891;-48
2022/05/13 14:53:19;;;;;;;;;;;21.90;50.90;;;;;;4965560;28;88179;-48
2022/05/13 14:55:50;;;;;;;;;;;22.00;50.40;;;;;;4965265;28;88436;-48